Portada
METAR-TAF:

METAR-TAF

Aeroports :

Port Hawkesbury, Nova Escòcia, Canadà

latitud: 45-40N, longitud: 061-23W, altitud: 114 m

Observació

L'informe es va fer fa 1 hora i 17 minuts, a les 13:15 UTC
Vent 5 kt del Nord/Nord-Oest amb ràfegues de 15 kt, variant entre Oest/Nord-Oest i Nord/Nord-Est
Temperatura -9°C
Humitat 73%
Pressió 1034 hPa
Visibilitat: 14.5 km
Núvols disperses a una alçada de 1900 ft

METAR: CYPD 181315Z AUTO 33005G15KT 300V020 9SM SCT019 M09/M13 A3052 RMK SLP345

Hora: 10:32 (14:32 UTC)


TAF: manca

Observacions i pronòstics meteorològics de més de 4000 aeroports (METAR i TAF).

Les estacions disponibles són els punts grocs i vermells al mapa.

Posi el ratolí al punt desitjat per veure el nom de l'estació.

Feu clic per veure les observacions i els pronòstics meteorològics.

Per canviar el mapa: feu clic els botons verds amb una creu de color negre per apropar; al botó verd amb un guió per allunyar la imatge; o en les fletxes verdes per a mapes adjacents.


METAR-TAF: